createdAt,value
2023-04-18T00:02:18.464Z,7.63
2023-04-18T00:12:41.167Z,7.62
2023-04-18T00:23:02.514Z,7.60
2023-04-18T00:33:23.876Z,7.59
2023-04-18T00:43:46.457Z,7.56
2023-04-18T00:54:08.253Z,7.55
2023-04-18T01:04:30.346Z,7.53
2023-04-18T01:14:51.607Z,7.51
2023-04-18T01:25:12.785Z,7.50
2023-04-18T01:35:34.301Z,7.47
2023-04-18T01:45:55.648Z,7.44
2023-04-18T01:56:16.725Z,7.43
2023-04-18T02:06:37.937Z,7.41
2023-04-18T02:17:00.157Z,7.40
2023-04-18T02:27:21.479Z,7.40
2023-04-18T02:37:42.656Z,7.38
2023-04-18T02:48:07.004Z,7.36
2023-04-18T02:58:29.861Z,7.35
2023-04-18T03:09:07.332Z,7.32
2023-04-18T03:19:32.313Z,7.29
2023-04-18T03:30:00.065Z,7.29
2023-04-18T03:40:21.215Z,7.27
2023-04-18T03:50:45.095Z,7.28
2023-04-18T04:01:08.010Z,7.24
2023-04-18T04:11:29.723Z,7.23
2023-04-18T04:21:51.475Z,7.22
2023-04-18T04:32:13.136Z,7.20
2023-04-18T04:42:36.123Z,7.17
2023-04-18T04:53:06.517Z,7.17
2023-04-18T05:03:28.615Z,7.17
2023-04-18T05:13:51.592Z,7.16
2023-04-18T05:24:12.873Z,7.16
2023-04-18T05:34:38.727Z,7.15
2023-04-18T05:45:00.399Z,7.15
2023-04-18T05:55:21.566Z,7.15
2023-04-18T06:05:43.103Z,7.15
2023-04-18T06:16:05.158Z,7.16
2023-04-18T06:26:26.542Z,7.19
2023-04-18T06:36:47.872Z,7.24
2023-04-18T06:47:09.772Z,7.26
2023-04-18T06:57:31.154Z,7.29
2023-04-18T07:07:52.518Z,7.32
2023-04-18T07:18:20.573Z,7.32
2023-04-18T07:28:47.904Z,7.33
2023-04-18T07:39:09.360Z,7.32
2023-04-18T07:49:30.489Z,7.33
2023-04-18T07:59:54.056Z,7.35
2023-04-18T08:10:15.125Z,7.35
2023-04-18T08:20:37.338Z,7.36
2023-04-18T08:30:58.795Z,7.36
2023-04-18T08:41:23.695Z,7.35
2023-04-18T08:51:45.715Z,7.35
2023-04-18T09:02:09.200Z,7.33
2023-04-18T09:12:30.531Z,7.35
2023-04-18T09:22:54.388Z,7.36
2023-04-18T09:33:15.787Z,7.36
2023-04-18T09:43:37.369Z,7.36
2023-04-18T09:53:59.685Z,7.37
2023-04-18T10:04:21.079Z,7.38
2023-04-18T10:14:43.397Z,7.43
2023-04-18T10:25:04.980Z,7.47
2023-04-18T10:35:26.866Z,7.51
2023-04-18T10:46:23.921Z,7.56
2023-04-18T10:56:56.819Z,7.62
2023-04-18T11:07:18.087Z,7.70
2023-04-18T11:17:43.032Z,7.74
2023-04-18T11:28:05.050Z,7.78
2023-04-18T11:38:33.799Z,7.83
2023-04-18T11:48:54.823Z,7.85
2023-04-18T11:59:16.469Z,7.88
2023-04-18T12:09:39.466Z,7.89
2023-04-18T12:20:05.491Z,7.92
2023-04-18T12:30:37.352Z,7.92
2023-04-18T12:41:00.160Z,7.91
2023-04-18T12:51:22.004Z,7.91
2023-04-18T13:01:43.041Z,7.90
2023-04-18T13:12:04.827Z,7.91
2023-04-18T13:22:26.139Z,7.90
2023-04-18T13:32:47.675Z,7.91
2023-04-18T13:43:11.221Z,7.90
2023-04-18T13:53:32.619Z,7.90
2023-04-18T14:03:54.859Z,7.90
2023-04-18T14:14:16.356Z,7.89
2023-04-18T14:24:37.374Z,7.91
2023-04-18T14:34:59.373Z,7.93
2023-04-18T14:45:20.740Z,7.95
2023-04-18T14:55:41.629Z,7.98
2023-04-18T15:06:02.930Z,7.99
2023-04-18T15:16:24.252Z,8.00
2023-04-18T15:26:45.945Z,8.01
2023-04-18T15:37:07.193Z,8.00
2023-04-18T15:47:28.335Z,8.02
2023-04-18T15:57:49.531Z,8.02
2023-04-18T16:08:10.652Z,8.04
2023-04-18T16:18:32.083Z,8.06
2023-04-18T16:28:53.469Z,8.09
2023-04-18T16:39:16.073Z,8.09
2023-04-18T16:49:37.770Z,8.10
2023-04-18T17:00:02.334Z,8.10
2023-04-18T17:10:24.026Z,8.10
2023-04-18T17:20:45.193Z,8.10
2023-04-18T17:31:06.126Z,8.09
2023-04-18T17:41:27.484Z,8.06
2023-04-18T17:51:48.781Z,8.04
2023-04-18T18:02:11.942Z,8.00
2023-04-18T18:12:35.552Z,7.96
2023-04-18T18:22:59.745Z,7.93
2023-04-18T18:33:21.300Z,7.91
2023-04-18T18:43:42.634Z,7.87
2023-04-18T18:54:03.626Z,7.85
2023-04-18T19:04:24.896Z,7.80
2023-04-18T19:14:47.215Z,7.79
2023-04-18T19:25:09.037Z,7.75
2023-04-18T19:35:29.963Z,7.73
2023-04-18T19:45:53.209Z,7.69
2023-04-18T19:56:16.479Z,7.67
2023-04-18T20:06:37.844Z,7.65
2023-04-18T20:17:00.246Z,7.61
2023-04-18T20:27:21.535Z,7.59
2023-04-18T20:37:43.271Z,7.55
2023-04-18T20:48:04.771Z,7.53
2023-04-18T20:58:26.406Z,7.50
2023-04-18T21:08:47.814Z,7.48
2023-04-18T21:19:09.230Z,7.47
2023-04-18T21:29:30.471Z,7.43
2023-04-18T21:39:51.829Z,7.40
2023-04-18T21:50:12.873Z,7.38
2023-04-18T22:00:33.918Z,7.34
2023-04-18T22:10:56.551Z,7.30
2023-04-18T22:21:18.049Z,7.27
2023-04-18T22:31:39.235Z,7.25
2023-04-18T22:42:00.500Z,7.22
2023-04-18T22:52:24.935Z,7.21
2023-04-18T23:02:46.404Z,7.17
2023-04-18T23:13:07.835Z,7.17
2023-04-18T23:23:29.039Z,7.13
2023-04-18T23:33:50.295Z,7.11
2023-04-18T23:44:11.179Z,7.08
2023-04-18T23:54:32.548Z,7.08
